createdAt,value
2023-02-28T00:05:06.226Z,2.03
2023-02-28T00:10:31.135Z,2.35
2023-02-28T00:16:07.010Z,2.10
2023-02-28T00:21:29.010Z,2.72
2023-02-28T00:26:50.933Z,1.45
2023-02-28T00:32:12.989Z,1.08
2023-02-28T00:37:34.944Z,1.30
2023-02-28T00:42:57.155Z,1.67
2023-02-28T00:48:19.056Z,1.17
2023-02-28T00:53:40.715Z,2.15
2023-02-28T00:59:02.480Z,1.75
2023-02-28T01:04:24.358Z,1.35
2023-02-28T01:09:46.169Z,2.72
2023-02-28T01:15:08.441Z,1.83
2023-02-28T01:20:30.186Z,1.30
2023-02-28T01:25:52.548Z,1.30
2023-02-28T01:31:15.258Z,1.40
2023-02-28T01:36:37.548Z,3.63
2023-02-28T01:41:59.222Z,2.03
2023-02-28T01:47:21.699Z,1.80
2023-02-28T01:52:45.095Z,0.98
2023-02-28T01:58:08.539Z,1.42
2023-02-28T02:03:31.328Z,1.17
2023-02-28T02:08:53.607Z,1.10
2023-02-28T02:14:32.297Z,1.75
2023-02-28T02:20:11.930Z,1.63
2023-02-28T02:25:44.797Z,2.13
2023-02-28T02:31:12.354Z,1.95
2023-02-28T02:36:39.951Z,1.90
2023-02-28T02:42:06.627Z,1.80
2023-02-28T02:47:31.860Z,1.52
2023-02-28T02:52:58.632Z,1.25
2023-02-28T02:58:25.391Z,2.03
2023-02-28T03:03:47.370Z,2.55
2023-02-28T03:09:09.306Z,1.52
2023-02-28T03:14:49.575Z,1.17
2023-02-28T03:20:25.191Z,1.55
2023-02-28T03:26:08.509Z,1.80
2023-02-28T03:31:41.224Z,1.10
2023-02-28T03:37:13.532Z,1.67
2023-02-28T03:42:38.142Z,2.50
2023-02-28T03:48:07.573Z,1.52
2023-02-28T03:53:36.376Z,2.47
2023-02-28T03:59:29.589Z,2.00
2023-02-28T04:04:52.239Z,1.98
2023-02-28T04:10:14.326Z,1.48
2023-02-28T04:15:35.994Z,3.15
2023-02-28T04:21:01.466Z,1.92
2023-02-28T04:26:23.124Z,1.75
2023-02-28T04:31:44.888Z,1.38
2023-02-28T04:37:13.204Z,1.50
2023-02-28T04:42:36.779Z,1.55
2023-02-28T04:47:58.612Z,1.55
2023-02-28T04:53:20.492Z,1.40
2023-02-28T04:58:42.581Z,1.30
2023-02-28T05:04:05.700Z,1.45
2023-02-28T05:09:27.642Z,2.60
2023-02-28T05:14:49.643Z,1.98
2023-02-28T05:20:16.351Z,1.73
2023-02-28T05:25:38.569Z,1.58
2023-02-28T05:31:00.600Z,2.97
2023-02-28T05:36:22.384Z,0.90
2023-02-28T05:41:45.006Z,2.90
2023-02-28T05:47:06.778Z,2.05
2023-02-28T05:52:31.140Z,1.38
2023-02-28T05:57:52.886Z,1.65
2023-02-28T06:03:14.907Z,0.88
2023-02-28T06:08:36.716Z,0.63
2023-02-28T06:14:00.807Z,1.27
2023-02-28T06:19:23.912Z,1.15
2023-02-28T06:24:45.701Z,3.78
2023-02-28T06:30:10.640Z,2.05
2023-02-28T06:35:32.777Z,1.03
2023-02-28T06:40:56.168Z,0.90
2023-02-28T06:46:17.947Z,1.45
2023-02-28T06:51:42.795Z,2.15
2023-02-28T06:57:04.581Z,2.63
2023-02-28T07:02:27.231Z,0.90
2023-02-28T07:07:49.036Z,1.73
2023-02-28T07:13:11.314Z,1.20
2023-02-28T07:18:33.481Z,1.52
2023-02-28T07:23:55.197Z,1.65
2023-02-28T07:29:17.031Z,1.05
2023-02-28T07:34:38.710Z,1.13
2023-02-28T07:40:00.502Z,1.30
2023-02-28T07:45:22.618Z,1.00
2023-02-28T07:50:44.304Z,1.75
2023-02-28T07:56:06.629Z,2.20
2023-02-28T08:01:28.856Z,1.67
2023-02-28T08:06:53.146Z,1.35
2023-02-28T08:12:15.039Z,1.23
2023-02-28T08:17:37.131Z,1.15
2023-02-28T08:22:58.837Z,2.22
2023-02-28T08:28:20.808Z,1.40
2023-02-28T08:33:43.424Z,0.80
2023-02-28T08:39:06.172Z,1.52
2023-02-28T08:44:28.544Z,0.65
2023-02-28T08:49:50.320Z,1.13
2023-02-28T08:55:12.081Z,1.58
2023-02-28T09:00:33.834Z,1.70
2023-02-28T09:05:58.086Z,1.65
2023-02-28T09:11:20.421Z,1.50
2023-02-28T09:16:42.168Z,1.92
2023-02-28T09:22:03.937Z,2.38
2023-02-28T09:27:25.924Z,0.68
2023-02-28T09:32:53.144Z,2.38
2023-02-28T09:38:15.344Z,1.30
2023-02-28T09:43:40.386Z,0.88
2023-02-28T09:49:07.793Z,2.38
2023-02-28T09:54:33.239Z,2.08
2023-02-28T10:00:08.314Z,0.45
2023-02-28T10:05:54.727Z,0.93
2023-02-28T10:11:19.385Z,0.80
2023-02-28T10:17:05.342Z,1.47
2023-02-28T10:22:45.716Z,2.20
2023-02-28T10:28:14.443Z,1.95
2023-02-28T10:33:37.014Z,0.93
2023-02-28T10:39:00.930Z,1.02
2023-02-28T10:44:25.038Z,0.77
2023-02-28T10:49:53.542Z,3.33
2023-02-28T10:55:23.721Z,1.92
2023-02-28T11:00:45.603Z,0.43
2023-02-28T11:06:14.286Z,1.55
2023-02-28T11:11:48.464Z,1.55
2023-02-28T11:17:23.066Z,2.10
2023-02-28T11:22:47.286Z,1.77
2023-02-28T11:28:38.199Z,3.47
2023-02-28T11:34:00.318Z,1.05
2023-02-28T11:39:22.622Z,1.48
2023-02-28T11:45:16.288Z,1.58
2023-02-28T11:50:44.109Z,0.80
2023-02-28T11:56:20.124Z,1.55
2023-02-28T12:02:06.378Z,1.90
2023-02-28T12:07:38.348Z,1.63
2023-02-28T12:13:05.223Z,7.35
2023-02-28T12:18:47.408Z,1.70
2023-02-28T12:24:32.194Z,2.00
2023-02-28T12:30:28.254Z,2.05
2023-02-28T12:35:58.745Z,0.60
2023-02-28T12:41:29.407Z,0.70
2023-02-28T12:46:56.609Z,1.55
2023-02-28T12:52:47.736Z,1.58
2023-02-28T12:58:12.401Z,2.42
2023-02-28T13:03:34.072Z,0.83
2023-02-28T13:09:16.766Z,1.60
2023-02-28T13:14:39.567Z,1.08
2023-02-28T13:20:01.587Z,1.88
2023-02-28T13:25:23.441Z,1.33
2023-02-28T13:30:58.302Z,3.72
2023-02-28T13:36:20.023Z,1.42
2023-02-28T13:41:43.364Z,1.83
2023-02-28T13:47:05.111Z,2.20
2023-02-28T13:52:32.932Z,1.35
2023-02-28T13:58:24.222Z,2.88
2023-02-28T14:04:07.571Z,3.67
2023-02-28T14:09:36.486Z,2.25
2023-02-28T14:14:58.637Z,1.60
2023-02-28T14:20:22.226Z,1.80
2023-02-28T14:26:07.972Z,2.03
2023-02-28T14:31:36.925Z,4.83
2023-02-28T14:37:02.484Z,2.58
2023-02-28T14:47:53.499Z,3.65
2023-02-28T14:53:21.101Z,4.38
2023-02-28T14:58:55.727Z,1.63
2023-02-28T15:04:33.188Z,0.68
2023-02-28T15:10:18.979Z,2.53
2023-02-28T15:16:01.978Z,0.70
2023-02-28T15:21:28.813Z,1.52
2023-02-28T15:26:56.315Z,0.52
2023-02-28T15:32:38.392Z,1.10
2023-02-28T15:38:13.723Z,1.65
2023-02-28T15:43:40.528Z,1.03
2023-02-28T15:49:02.228Z,1.10
2023-02-28T15:54:34.028Z,1.30
2023-02-28T16:00:01.132Z,1.90
2023-02-28T16:05:31.693Z,1.33
2023-02-28T16:10:53.451Z,3.05
2023-02-28T16:16:19.506Z,2.65
2023-02-28T16:21:41.424Z,1.30
2023-02-28T16:27:03.304Z,3.22
2023-02-28T16:32:25.298Z,1.92
2023-02-28T16:37:47.109Z,6.40
2023-02-28T16:43:16.599Z,6.00
2023-02-28T16:48:38.522Z,0.40
2023-02-28T16:54:00.290Z,1.15
2023-02-28T16:59:27.492Z,1.77
2023-02-28T17:04:49.172Z,1.58
2023-02-28T17:10:16.322Z,1.67
2023-02-28T17:15:39.295Z,1.20
2023-02-28T17:21:02.291Z,2.17
2023-02-28T17:26:29.004Z,2.47
2023-02-28T17:31:51.084Z,0.63
2023-02-28T17:37:12.798Z,2.05
2023-02-28T17:42:35.249Z,0.70
2023-02-28T17:47:57.032Z,0.98
2023-02-28T17:53:19.121Z,1.63
2023-02-28T17:58:41.129Z,1.67
2023-02-28T18:04:02.933Z,2.28
2023-02-28T18:09:24.868Z,3.13
2023-02-28T18:14:48.855Z,2.05
2023-02-28T18:20:12.178Z,1.85
2023-02-28T18:25:33.880Z,1.02
2023-02-28T18:30:55.592Z,2.45
2023-02-28T18:36:18.212Z,4.43
2023-02-28T18:41:40.039Z,3.95
2023-02-28T18:47:01.836Z,7.20
2023-02-28T18:52:23.929Z,8.30
2023-02-28T18:57:47.466Z,4.75
2023-02-28T19:03:09.833Z,2.78
2023-02-28T19:08:31.591Z,3.63
2023-02-28T19:13:53.337Z,6.80
2023-02-28T19:19:15.126Z,2.50
2023-02-28T19:24:37.024Z,5.30
2023-02-28T19:29:59.574Z,11.07
2023-02-28T19:35:21.639Z,6.13
2023-02-28T19:40:44.023Z,7.72
2023-02-28T19:46:06.840Z,7.65
2023-02-28T19:51:28.946Z,8.32
2023-02-28T19:56:50.714Z,8.77
2023-02-28T20:02:17.644Z,6.88
2023-02-28T20:07:39.431Z,6.65
2023-02-28T20:13:01.164Z,5.28
2023-02-28T20:18:22.898Z,3.95
2023-02-28T20:23:46.288Z,5.45
2023-02-28T20:29:09.096Z,2.92
2023-02-28T20:34:30.823Z,10.40
2023-02-28T20:39:53.297Z,5.53
2023-02-28T20:45:15.229Z,8.05
2023-02-28T20:50:36.995Z,11.32
2023-02-28T20:56:00.122Z,9.85
2023-02-28T21:01:27.043Z,10.13
2023-02-28T21:06:51.903Z,12.90
2023-02-28T21:12:13.641Z,8.83
2023-02-28T21:17:35.374Z,7.97
2023-02-28T21:22:57.348Z,8.85
2023-02-28T21:28:19.378Z,7.05
2023-02-28T21:33:41.345Z,9.57
2023-02-28T21:39:08.349Z,8.32
2023-02-28T21:44:31.414Z,8.73
2023-02-28T21:49:53.342Z,9.65
2023-02-28T21:55:15.301Z,9.85
2023-02-28T22:00:37.254Z,9.82
2023-02-28T22:05:59.076Z,9.13
2023-02-28T22:11:22.613Z,4.82
2023-02-28T22:16:51.682Z,7.40
2023-02-28T22:22:14.472Z,14.05
2023-02-28T22:27:36.181Z,7.85
2023-02-28T22:32:57.907Z,4.35
2023-02-28T22:38:20.172Z,8.57
2023-02-28T22:43:43.689Z,7.85
2023-02-28T22:49:06.235Z,4.70
2023-02-28T22:54:27.976Z,4.00
2023-02-28T22:59:49.712Z,4.50
2023-02-28T23:05:12.554Z,2.05
2023-02-28T23:10:34.259Z,3.60
2023-02-28T23:15:55.974Z,2.95
2023-02-28T23:21:17.750Z,2.97
2023-02-28T23:26:42.522Z,3.17
2023-02-28T23:32:05.803Z,2.43
2023-02-28T23:37:27.599Z,4.63
2023-02-28T23:42:49.446Z,1.83
2023-02-28T23:48:11.186Z,1.88
2023-02-28T23:53:34.236Z,5.45
2023-02-28T23:58:57.110Z,2.35
